sensor_id;sensor_type;location;lat;lon;timestamp;P1;durP1;ratioP1;P2;durP2;ratioP2
33327;SDS011;19692;52.998;9.116;2023-11-19T00:00:00;6.67;;;5.93;;
33327;SDS011;19692;52.998;9.116;2023-11-19T00:02:29;5.33;;;4.83;;
33327;SDS011;19692;52.998;9.116;2023-11-19T00:04:55;5.00;;;4.60;;
33327;SDS011;19692;52.998;9.116;2023-11-19T00:07:20;5.50;;;5.00;;
33327;SDS011;19692;52.998;9.116;2023-11-19T00:09:46;5.20;;;4.70;;
33327;SDS011;19692;52.998;9.116;2023-11-19T00:12:12;5.40;;;4.93;;
33327;SDS011;19692;52.998;9.116;2023-11-19T00:14:38;7.63;;;4.87;;
33327;SDS011;19692;52.998;9.116;2023-11-19T00:17:03;5.40;;;4.90;;
33327;SDS011;19692;52.998;9.116;2023-11-19T00:19:29;5.40;;;4.90;;
33327;SDS011;19692;52.998;9.116;2023-11-19T00:21:55;5.73;;;5.23;;
33327;SDS011;19692;52.998;9.116;2023-11-19T00:24:21;6.60;;;5.60;;
33327;SDS011;19692;52.998;9.116;2023-11-19T00:26:46;6.03;;;5.43;;
33327;SDS011;19692;52.998;9.116;2023-11-19T00:29:12;6.63;;;5.97;;
33327;SDS011;19692;52.998;9.116;2023-11-19T00:31:39;6.50;;;5.87;;
33327;SDS011;19692;52.998;9.116;2023-11-19T00:34:04;6.60;;;6.00;;
33327;SDS011;19692;52.998;9.116;2023-11-19T00:36:31;6.83;;;6.13;;
33327;SDS011;19692;52.998;9.116;2023-11-19T00:38:56;8.30;;;7.50;;
33327;SDS011;19692;52.998;9.116;2023-11-19T00:41:23;7.63;;;6.93;;
33327;SDS011;19692;52.998;9.116;2023-11-19T00:43:48;7.70;;;6.90;;
33327;SDS011;19692;52.998;9.116;2023-11-19T00:46:14;7.53;;;6.83;;
33327;SDS011;19692;52.998;9.116;2023-11-19T00:48:40;7.17;;;6.47;;
33327;SDS011;19692;52.998;9.116;2023-11-19T00:51:06;7.30;;;6.60;;
33327;SDS011;19692;52.998;9.116;2023-11-19T00:53:32;6.80;;;6.20;;
33327;SDS011;19692;52.998;9.116;2023-11-19T00:55:59;7.10;;;6.50;;
33327;SDS011;19692;52.998;9.116;2023-11-19T00:58:25;7.47;;;6.67;;
33327;SDS011;19692;52.998;9.116;2023-11-19T01:00:51;10.60;;;6.00;;
33327;SDS011;19692;52.998;9.116;2023-11-19T01:03:16;7.57;;;6.87;;
33327;SDS011;19692;52.998;9.116;2023-11-19T01:05:42;8.47;;;7.03;;
33327;SDS011;19692;52.998;9.116;2023-11-19T01:08:09;8.23;;;7.40;;
33327;SDS011;19692;52.998;9.116;2023-11-19T01:10:38;7.93;;;7.13;;
33327;SDS011;19692;52.998;9.116;2023-11-19T01:13:04;8.90;;;7.60;;
33327;SDS011;19692;52.998;9.116;2023-11-19T01:15:33;8.20;;;7.40;;
33327;SDS011;19692;52.998;9.116;2023-11-19T01:17:59;8.50;;;7.63;;
33327;SDS011;19692;52.998;9.116;2023-11-19T01:20:27;7.87;;;7.13;;
33327;SDS011;19692;52.998;9.116;2023-11-19T01:22:52;8.43;;;7.63;;
33327;SDS011;19692;52.998;9.116;2023-11-19T01:25:18;7.53;;;6.93;;
33327;SDS011;19692;52.998;9.116;2023-11-19T01:27:44;8.23;;;7.43;;
33327;SDS011;19692;52.998;9.116;2023-11-19T01:30:10;7.97;;;7.17;;
33327;SDS011;19692;52.998;9.116;2023-11-19T01:32:39;8.17;;;7.37;;
33327;SDS011;19692;52.998;9.116;2023-11-19T01:35:05;8.63;;;7.83;;
33327;SDS011;19692;52.998;9.116;2023-11-19T01:37:31;9.30;;;8.30;;
33327;SDS011;19692;52.998;9.116;2023-11-19T01:39:57;8.83;;;8.03;;
33327;SDS011;19692;52.998;9.116;2023-11-19T01:42:23;11.90;;;10.70;;
33327;SDS011;19692;52.998;9.116;2023-11-19T01:44:58;11.27;;;10.03;;
33327;SDS011;19692;52.998;9.116;2023-11-19T01:47:25;11.90;;;10.70;;
33327;SDS011;19692;52.998;9.116;2023-11-19T01:49:52;10.20;;;9.13;;
33327;SDS011;19692;52.998;9.116;2023-11-19T01:52:18;10.10;;;9.10;;
33327;SDS011;19692;52.998;9.116;2023-11-19T01:54:45;10.73;;;9.23;;
33327;SDS011;19692;52.998;9.116;2023-11-19T01:57:12;10.73;;;9.63;;
33327;SDS011;19692;52.998;9.116;2023-11-19T01:59:38;10.97;;;9.87;;
33327;SDS011;19692;52.998;9.116;2023-11-19T02:02:05;14.53;;;12.17;;
33327;SDS011;19692;52.998;9.116;2023-11-19T02:04:31;10.53;;;9.43;;
33327;SDS011;19692;52.998;9.116;2023-11-19T02:06:58;11.17;;;9.83;;
33327;SDS011;19692;52.998;9.116;2023-11-19T02:09:24;11.50;;;9.93;;
33327;SDS011;19692;52.998;9.116;2023-11-19T02:11:49;10.00;;;9.00;;
33327;SDS011;19692;52.998;9.116;2023-11-19T02:14:16;10.97;;;9.80;;
33327;SDS011;19692;52.998;9.116;2023-11-19T02:16:43;11.57;;;10.30;;
33327;SDS011;19692;52.998;9.116;2023-11-19T02:19:09;11.73;;;10.53;;
33327;SDS011;19692;52.998;9.116;2023-11-19T02:21:36;11.93;;;10.67;;
33327;SDS011;19692;52.998;9.116;2023-11-19T02:24:03;12.53;;;10.73;;
33327;SDS011;19692;52.998;9.116;2023-11-19T02:29:22;16.23;;;13.50;;
33327;SDS011;19692;52.998;9.116;2023-11-19T02:31:48;13.73;;;10.57;;
33327;SDS011;19692;52.998;9.116;2023-11-19T02:34:14;14.73;;;12.53;;
33327;SDS011;19692;52.998;9.116;2023-11-19T02:36:41;31.37;;;20.70;;
33327;SDS011;19692;52.998;9.116;2023-11-19T02:39:07;15.90;;;12.10;;
33327;SDS011;19692;52.998;9.116;2023-11-19T02:41:36;12.77;;;11.47;;
33327;SDS011;19692;52.998;9.116;2023-11-19T02:44:04;17.30;;;14.07;;
33327;SDS011;19692;52.998;9.116;2023-11-19T02:46:31;16.60;;;14.07;;
33327;SDS011;19692;52.998;9.116;2023-11-19T02:48:57;17.50;;;14.40;;
33327;SDS011;19692;52.998;9.116;2023-11-19T02:51:23;23.90;;;18.17;;
33327;SDS011;19692;52.998;9.116;2023-11-19T02:53:49;23.60;;;17.10;;
33327;SDS011;19692;52.998;9.116;2023-11-19T02:56:15;15.27;;;13.67;;
33327;SDS011;19692;52.998;9.116;2023-11-19T02:58:45;15.83;;;13.97;;
33327;SDS011;19692;52.998;9.116;2023-11-19T03:01:11;15.73;;;13.60;;
33327;SDS011;19692;52.998;9.116;2023-11-19T03:03:48;17.33;;;14.53;;
33327;SDS011;19692;52.998;9.116;2023-11-19T03:06:20;19.60;;;15.43;;
33327;SDS011;19692;52.998;9.116;2023-11-19T03:08:46;19.10;;;15.40;;
33327;SDS011;19692;52.998;9.116;2023-11-19T03:11:13;21.97;;;15.90;;
33327;SDS011;19692;52.998;9.116;2023-11-19T03:13:39;20.90;;;15.47;;
33327;SDS011;19692;52.998;9.116;2023-11-19T03:16:05;28.73;;;20.33;;
33327;SDS011;19692;52.998;9.116;2023-11-19T03:18:31;29.30;;;20.90;;
33327;SDS011;19692;52.998;9.116;2023-11-19T03:20:58;28.43;;;20.57;;
33327;SDS011;19692;52.998;9.116;2023-11-19T03:23:24;31.53;;;22.10;;
33327;SDS011;19692;52.998;9.116;2023-11-19T03:25:53;35.10;;;23.87;;
33327;SDS011;19692;52.998;9.116;2023-11-19T03:28:19;33.70;;;23.13;;
33327;SDS011;19692;52.998;9.116;2023-11-19T03:30:45;34.80;;;22.77;;
33327;SDS011;19692;52.998;9.116;2023-11-19T03:33:10;36.10;;;21.73;;
33327;SDS011;19692;52.998;9.116;2023-11-19T03:35:36;32.93;;;23.13;;
33327;SDS011;19692;52.998;9.116;2023-11-19T03:38:02;36.87;;;23.27;;
33327;SDS011;19692;52.998;9.116;2023-11-19T03:40:28;33.10;;;22.43;;
33327;SDS011;19692;52.998;9.116;2023-11-19T03:42:55;30.87;;;22.17;;
33327;SDS011;19692;52.998;9.116;2023-11-19T03:45:23;33.57;;;23.67;;
33327;SDS011;19692;52.998;9.116;2023-11-19T03:47:49;35.43;;;23.00;;
33327;SDS011;19692;52.998;9.116;2023-11-19T03:50:16;36.20;;;23.97;;
33327;SDS011;19692;52.998;9.116;2023-11-19T03:52:42;34.17;;;24.07;;
33327;SDS011;19692;52.998;9.116;2023-11-19T03:55:08;34.30;;;23.90;;
33327;SDS011;19692;52.998;9.116;2023-11-19T03:57:34;33.20;;;23.07;;
33327;SDS011;19692;52.998;9.116;2023-11-19T04:00:01;35.23;;;23.00;;
33327;SDS011;19692;52.998;9.116;2023-11-19T04:02:33;42.67;;;24.30;;
33327;SDS011;19692;52.998;9.116;2023-11-19T04:04:59;36.93;;;23.80;;
33327;SDS011;19692;52.998;9.116;2023-11-19T04:07:25;33.30;;;23.97;;
33327;SDS011;19692;52.998;9.116;2023-11-19T04:09:50;39.80;;;25.03;;
33327;SDS011;19692;52.998;9.116;2023-11-19T04:12:16;36.57;;;24.23;;
33327;SDS011;19692;52.998;9.116;2023-11-19T04:14:42;36.60;;;24.57;;
33327;SDS011;19692;52.998;9.116;2023-11-19T04:17:09;35.07;;;24.00;;
33327;SDS011;19692;52.998;9.116;2023-11-19T04:19:34;35.50;;;23.87;;
33327;SDS011;19692;52.998;9.116;2023-11-19T04:22:00;37.73;;;24.07;;
33327;SDS011;19692;52.998;9.116;2023-11-19T04:24:27;33.63;;;23.30;;
33327;SDS011;19692;52.998;9.116;2023-11-19T04:26:53;32.60;;;23.47;;
33327;SDS011;19692;52.998;9.116;2023-11-19T04:29:18;34.60;;;24.00;;
33327;SDS011;19692;52.998;9.116;2023-11-19T04:31:44;33.67;;;23.60;;
33327;SDS011;19692;52.998;9.116;2023-11-19T04:34:11;39.10;;;24.67;;
33327;SDS011;19692;52.998;9.116;2023-11-19T04:36:37;35.17;;;23.37;;
33327;SDS011;19692;52.998;9.116;2023-11-19T04:39:03;34.20;;;23.23;;
33327;SDS011;19692;52.998;9.116;2023-11-19T04:41:47;39.47;;;23.43;;
33327;SDS011;19692;52.998;9.116;2023-11-19T04:44:19;35.07;;;22.10;;
33327;SDS011;19692;52.998;9.116;2023-11-19T04:46:46;38.83;;;23.40;;
33327;SDS011;19692;52.998;9.116;2023-11-19T04:49:12;37.17;;;22.63;;
33327;SDS011;19692;52.998;9.116;2023-11-19T04:51:39;34.07;;;22.63;;
33327;SDS011;19692;52.998;9.116;2023-11-19T04:54:09;36.30;;;23.37;;
33327;SDS011;19692;52.998;9.116;2023-11-19T04:56:35;35.10;;;22.47;;
33327;SDS011;19692;52.998;9.116;2023-11-19T04:59:05;32.77;;;21.93;;
33327;SDS011;19692;52.998;9.116;2023-11-19T05:01:31;36.07;;;23.53;;
33327;SDS011;19692;52.998;9.116;2023-11-19T05:03:58;37.00;;;23.23;;
33327;SDS011;19692;52.998;9.116;2023-11-19T05:06:25;38.37;;;22.67;;
33327;SDS011;19692;52.998;9.116;2023-11-19T05:08:53;34.97;;;21.80;;
33327;SDS011;19692;52.998;9.116;2023-11-19T05:11:19;37.03;;;22.93;;
33327;SDS011;19692;52.998;9.116;2023-11-19T05:13:45;32.20;;;21.33;;
33327;SDS011;19692;52.998;9.116;2023-11-19T05:16:11;36.07;;;20.70;;
33327;SDS011;19692;52.998;9.116;2023-11-19T05:18:39;32.43;;;21.50;;
33327;SDS011;19692;52.998;9.116;2023-11-19T05:21:05;33.87;;;20.70;;
33327;SDS011;19692;52.998;9.116;2023-11-19T05:23:32;35.53;;;20.20;;
33327;SDS011;19692;52.998;9.116;2023-11-19T05:26:01;33.57;;;19.13;;
33327;SDS011;19692;52.998;9.116;2023-11-19T05:28:27;38.13;;;20.57;;
33327;SDS011;19692;52.998;9.116;2023-11-19T05:30:53;37.23;;;20.10;;
33327;SDS011;19692;52.998;9.116;2023-11-19T05:33:20;37.57;;;20.17;;
33327;SDS011;19692;52.998;9.116;2023-11-19T05:35:46;36.50;;;19.73;;
33327;SDS011;19692;52.998;9.116;2023-11-19T05:38:12;28.23;;;18.30;;
33327;SDS011;19692;52.998;9.116;2023-11-19T05:40:38;34.73;;;18.93;;
33327;SDS011;19692;52.998;9.116;2023-11-19T05:43:04;32.47;;;18.17;;
33327;SDS011;19692;52.998;9.116;2023-11-19T05:45:30;31.53;;;18.50;;
33327;SDS011;19692;52.998;9.116;2023-11-19T05:47:57;33.53;;;17.33;;
33327;SDS011;19692;52.998;9.116;2023-11-19T05:50:22;33.97;;;17.60;;
33327;SDS011;19692;52.998;9.116;2023-11-19T05:52:48;35.33;;;17.33;;
33327;SDS011;19692;52.998;9.116;2023-11-19T05:55:15;28.80;;;17.33;;
33327;SDS011;19692;52.998;9.116;2023-11-19T05:57:41;34.87;;;17.73;;
33327;SDS011;19692;52.998;9.116;2023-11-19T06:00:07;35.50;;;16.03;;
33327;SDS011;19692;52.998;9.116;2023-11-19T06:02:35;33.03;;;16.10;;
33327;SDS011;19692;52.998;9.116;2023-11-19T06:05:03;27.87;;;14.57;;
33327;SDS011;19692;52.998;9.116;2023-11-19T06:07:34;31.30;;;14.63;;
33327;SDS011;19692;52.998;9.116;2023-11-19T06:10:01;32.03;;;14.27;;
33327;SDS011;19692;52.998;9.116;2023-11-19T06:12:31;32.67;;;13.20;;
33327;SDS011;19692;52.998;9.116;2023-11-19T06:15:02;33.73;;;12.17;;
33327;SDS011;19692;52.998;9.116;2023-11-19T06:17:30;29.43;;;11.73;;
33327;SDS011;19692;52.998;9.116;2023-11-19T06:19:56;34.87;;;11.70;;
33327;SDS011;19692;52.998;9.116;2023-11-19T06:22:21;32.13;;;10.73;;
33327;SDS011;19692;52.998;9.116;2023-11-19T06:24:47;38.93;;;10.33;;
33327;SDS011;19692;52.998;9.116;2023-11-19T06:27:13;26.73;;;9.23;;
33327;SDS011;19692;52.998;9.116;2023-11-19T06:29:38;33.30;;;9.37;;
33327;SDS011;19692;52.998;9.116;2023-11-19T06:32:06;31.80;;;8.27;;
33327;SDS011;19692;52.998;9.116;2023-11-19T06:34:33;33.80;;;8.00;;
33327;SDS011;19692;52.998;9.116;2023-11-19T06:36:59;25.00;;;8.30;;
33327;SDS011;19692;52.998;9.116;2023-11-19T06:39:25;28.27;;;8.87;;
33327;SDS011;19692;52.998;9.116;2023-11-19T06:41:50;33.47;;;7.73;;
33327;SDS011;19692;52.998;9.116;2023-11-19T06:44:17;28.43;;;8.00;;
33327;SDS011;19692;52.998;9.116;2023-11-19T06:46:42;28.23;;;8.37;;
33327;SDS011;19692;52.998;9.116;2023-11-19T06:49:08;29.00;;;7.90;;
33327;SDS011;19692;52.998;9.116;2023-11-19T06:51:34;30.27;;;7.40;;
33327;SDS011;19692;52.998;9.116;2023-11-19T06:54:00;32.83;;;7.83;;
33327;SDS011;19692;52.998;9.116;2023-11-19T06:56:26;37.60;;;8.50;;
33327;SDS011;19692;52.998;9.116;2023-11-19T06:58:52;33.70;;;8.77;;
33327;SDS011;19692;52.998;9.116;2023-11-19T07:01:18;31.27;;;8.43;;
33327;SDS011;19692;52.998;9.116;2023-11-19T07:03:47;33.47;;;7.17;;
33327;SDS011;19692;52.998;9.116;2023-11-19T07:06:13;37.07;;;8.17;;
33327;SDS011;19692;52.998;9.116;2023-11-19T07:08:43;31.17;;;7.13;;
33327;SDS011;19692;52.998;9.116;2023-11-19T07:11:12;32.43;;;7.43;;
33327;SDS011;19692;52.998;9.116;2023-11-19T07:13:42;33.37;;;7.83;;
33327;SDS011;19692;52.998;9.116;2023-11-19T07:16:08;27.80;;;8.53;;
33327;SDS011;19692;52.998;9.116;2023-11-19T07:18:35;31.87;;;7.90;;
33327;SDS011;19692;52.998;9.116;2023-11-19T07:21:01;30.50;;;7.80;;
33327;SDS011;19692;52.998;9.116;2023-11-19T07:23:28;31.43;;;7.90;;
33327;SDS011;19692;52.998;9.116;2023-11-19T07:25:54;33.77;;;7.80;;
33327;SDS011;19692;52.998;9.116;2023-11-19T07:28:19;29.40;;;7.17;;
33327;SDS011;19692;52.998;9.116;2023-11-19T07:30:45;31.20;;;7.17;;
33327;SDS011;19692;52.998;9.116;2023-11-19T07:33:11;24.00;;;6.97;;
33327;SDS011;19692;52.998;9.116;2023-11-19T07:35:38;32.43;;;7.43;;
33327;SDS011;19692;52.998;9.116;2023-11-19T07:38:07;34.70;;;7.00;;
33327;SDS011;19692;52.998;9.116;2023-11-19T07:40:33;31.63;;;7.83;;
33327;SDS011;19692;52.998;9.116;2023-11-19T07:42:59;31.00;;;6.77;;
33327;SDS011;19692;52.998;9.116;2023-11-19T07:45:24;30.27;;;6.93;;
33327;SDS011;19692;52.998;9.116;2023-11-19T07:47:52;30.23;;;7.13;;
33327;SDS011;19692;52.998;9.116;2023-11-19T07:50:19;24.20;;;6.40;;
33327;SDS011;19692;52.998;9.116;2023-11-19T07:52:45;34.73;;;7.57;;
33327;SDS011;19692;52.998;9.116;2023-11-19T07:55:11;34.80;;;7.30;;
33327;SDS011;19692;52.998;9.116;2023-11-19T07:57:37;33.90;;;7.43;;
33327;SDS011;19692;52.998;9.116;2023-11-19T08:00:03;33.27;;;7.00;;
33327;SDS011;19692;52.998;9.116;2023-11-19T08:02:30;36.03;;;10.83;;
33327;SDS011;19692;52.998;9.116;2023-11-19T08:04:55;31.20;;;9.10;;
33327;SDS011;19692;52.998;9.116;2023-11-19T08:07:21;28.33;;;7.67;;
33327;SDS011;19692;52.998;9.116;2023-11-19T08:09:47;36.37;;;9.30;;
33327;SDS011;19692;52.998;9.116;2023-11-19T08:12:13;33.87;;;8.67;;
33327;SDS011;19692;52.998;9.116;2023-11-19T08:14:40;26.83;;;7.83;;
33327;SDS011;19692;52.998;9.116;2023-11-19T08:17:06;35.70;;;8.57;;
33327;SDS011;19692;52.998;9.116;2023-11-19T08:19:32;23.57;;;6.80;;
33327;SDS011;19692;52.998;9.116;2023-11-19T08:21:58;35.43;;;8.43;;
33327;SDS011;19692;52.998;9.116;2023-11-19T08:24:23;37.53;;;8.70;;
33327;SDS011;19692;52.998;9.116;2023-11-19T08:26:49;29.60;;;7.37;;
33327;SDS011;19692;52.998;9.116;2023-11-19T08:29:15;33.10;;;7.83;;
33327;SDS011;19692;52.998;9.116;2023-11-19T08:31:41;35.83;;;8.63;;
33327;SDS011;19692;52.998;9.116;2023-11-19T08:34:07;35.17;;;8.07;;
33327;SDS011;19692;52.998;9.116;2023-11-19T08:36:34;27.47;;;6.77;;
33327;SDS011;19692;52.998;9.116;2023-11-19T08:39:00;26.67;;;7.23;;
33327;SDS011;19692;52.998;9.116;2023-11-19T08:41:26;28.03;;;7.03;;
33327;SDS011;19692;52.998;9.116;2023-11-19T08:43:52;24.70;;;6.90;;
33327;SDS011;19692;52.998;9.116;2023-11-19T08:46:17;26.30;;;6.57;;
33327;SDS011;19692;52.998;9.116;2023-11-19T08:48:43;21.40;;;6.73;;
33327;SDS011;19692;52.998;9.116;2023-11-19T08:51:11;24.90;;;5.67;;
33327;SDS011;19692;52.998;9.116;2023-11-19T08:53:37;22.53;;;6.40;;
33327;SDS011;19692;52.998;9.116;2023-11-19T08:56:03;24.77;;;6.23;;
33327;SDS011;19692;52.998;9.116;2023-11-19T08:58:30;29.40;;;8.03;;
33327;SDS011;19692;52.998;9.116;2023-11-19T09:00:56;27.10;;;6.87;;
33327;SDS011;19692;52.998;9.116;2023-11-19T09:03:22;25.53;;;6.33;;
33327;SDS011;19692;52.998;9.116;2023-11-19T09:05:48;29.63;;;8.17;;
33327;SDS011;19692;52.998;9.116;2023-11-19T09:08:14;25.97;;;6.40;;
33327;SDS011;19692;52.998;9.116;2023-11-19T09:10:40;26.70;;;6.07;;
33327;SDS011;19692;52.998;9.116;2023-11-19T09:13:05;26.27;;;6.07;;
33327;SDS011;19692;52.998;9.116;2023-11-19T09:15:31;20.97;;;5.33;;
33327;SDS011;19692;52.998;9.116;2023-11-19T09:17:57;21.70;;;6.37;;
33327;SDS011;19692;52.998;9.116;2023-11-19T09:20:23;22.93;;;6.00;;
33327;SDS011;19692;52.998;9.116;2023-11-19T09:22:48;25.03;;;6.23;;
33327;SDS011;19692;52.998;9.116;2023-11-19T09:25:14;19.57;;;6.80;;
33327;SDS011;19692;52.998;9.116;2023-11-19T09:27:43;25.27;;;7.03;;
33327;SDS011;19692;52.998;9.116;2023-11-19T09:30:09;32.30;;;7.30;;
33327;SDS011;19692;52.998;9.116;2023-11-19T09:32:35;35.03;;;7.20;;
33327;SDS011;19692;52.998;9.116;2023-11-19T09:35:02;26.17;;;6.30;;
33327;SDS011;19692;52.998;9.116;2023-11-19T09:37:29;32.57;;;7.00;;
33327;SDS011;19692;52.998;9.116;2023-11-19T09:39:54;28.50;;;7.10;;
33327;SDS011;19692;52.998;9.116;2023-11-19T09:42:20;30.17;;;6.83;;
33327;SDS011;19692;52.998;9.116;2023-11-19T09:44:46;28.93;;;8.07;;
33327;SDS011;19692;52.998;9.116;2023-11-19T09:47:13;27.50;;;7.43;;
33327;SDS011;19692;52.998;9.116;2023-11-19T09:49:40;40.03;;;8.10;;
33327;SDS011;19692;52.998;9.116;2023-11-19T09:52:06;30.03;;;7.20;;
33327;SDS011;19692;52.998;9.116;2023-11-19T09:54:32;38.63;;;7.90;;
33327;SDS011;19692;52.998;9.116;2023-11-19T09:56:58;36.43;;;8.53;;
33327;SDS011;19692;52.998;9.116;2023-11-19T09:59:29;27.47;;;7.10;;
33327;SDS011;19692;52.998;9.116;2023-11-19T10:01:56;31.40;;;6.83;;
33327;SDS011;19692;52.998;9.116;2023-11-19T10:04:22;35.27;;;8.17;;
33327;SDS011;19692;52.998;9.116;2023-11-19T10:06:49;27.17;;;7.10;;
33327;SDS011;19692;52.998;9.116;2023-11-19T10:09:16;32.77;;;6.93;;
33327;SDS011;19692;52.998;9.116;2023-11-19T10:11:42;33.63;;;7.63;;
33327;SDS011;19692;52.998;9.116;2023-11-19T10:14:08;28.03;;;7.17;;
33327;SDS011;19692;52.998;9.116;2023-11-19T10:16:34;30.47;;;7.60;;
33327;SDS011;19692;52.998;9.116;2023-11-19T10:19:01;34.73;;;7.47;;
33327;SDS011;19692;52.998;9.116;2023-11-19T10:21:27;29.93;;;7.73;;
33327;SDS011;19692;52.998;9.116;2023-11-19T10:23:54;35.07;;;8.37;;
33327;SDS011;19692;52.998;9.116;2023-11-19T10:26:23;33.60;;;7.83;;
33327;SDS011;19692;52.998;9.116;2023-11-19T10:28:49;27.70;;;7.50;;
33327;SDS011;19692;52.998;9.116;2023-11-19T10:31:19;39.43;;;15.90;;
33327;SDS011;19692;52.998;9.116;2023-11-19T10:33:50;34.93;;;7.50;;
33327;SDS011;19692;52.998;9.116;2023-11-19T10:36:16;33.03;;;8.37;;
33327;SDS011;19692;52.998;9.116;2023-11-19T10:38:51;33.33;;;8.43;;
33327;SDS011;19692;52.998;9.116;2023-11-19T10:41:30;33.70;;;7.77;;
33327;SDS011;19692;52.998;9.116;2023-11-19T10:43:58;29.57;;;7.00;;
33327;SDS011;19692;52.998;9.116;2023-11-19T10:46:36;28.77;;;7.33;;
33327;SDS011;19692;52.998;9.116;2023-11-19T10:49:05;27.97;;;7.03;;
33327;SDS011;19692;52.998;9.116;2023-11-19T10:51:32;24.00;;;6.17;;
33327;SDS011;19692;52.998;9.116;2023-11-19T10:54:00;19.33;;;6.13;;
33327;SDS011;19692;52.998;9.116;2023-11-19T10:56:31;28.90;;;6.60;;
33327;SDS011;19692;52.998;9.116;2023-11-19T10:58:59;31.23;;;7.17;;
33327;SDS011;19692;52.998;9.116;2023-11-19T11:01:34;30.50;;;6.90;;
33327;SDS011;19692;52.998;9.116;2023-11-19T11:04:15;22.90;;;6.53;;
33327;SDS011;19692;52.998;9.116;2023-11-19T11:06:48;25.07;;;7.57;;
33327;SDS011;19692;52.998;9.116;2023-11-19T11:09:15;26.63;;;7.03;;
33327;SDS011;19692;52.998;9.116;2023-11-19T11:11:42;31.17;;;8.17;;
33327;SDS011;19692;52.998;9.116;2023-11-19T11:14:13;27.57;;;7.33;;
33327;SDS011;19692;52.998;9.116;2023-11-19T11:16:42;30.07;;;7.87;;
33327;SDS011;19692;52.998;9.116;2023-11-19T11:19:10;29.20;;;7.23;;
33327;SDS011;19692;52.998;9.116;2023-11-19T11:21:37;21.80;;;6.77;;
33327;SDS011;19692;52.998;9.116;2023-11-19T11:27:16;30.47;;;7.37;;
33327;SDS011;19692;52.998;9.116;2023-11-19T11:30:59;30.07;;;8.47;;
33327;SDS011;19692;52.998;9.116;2023-11-19T11:33:34;31.30;;;7.53;;
33327;SDS011;19692;52.998;9.116;2023-11-19T11:36:52;30.20;;;7.87;;
33327;SDS011;19692;52.998;9.116;2023-11-19T11:39:42;26.03;;;6.73;;
33327;SDS011;19692;52.998;9.116;2023-11-19T11:45:02;27.27;;;7.57;;
33327;SDS011;19692;52.998;9.116;2023-11-19T11:50:14;27.77;;;7.63;;
33327;SDS011;19692;52.998;9.116;2023-11-19T11:55:39;32.47;;;7.50;;
33327;SDS011;19692;52.998;9.116;2023-11-19T11:58:26;26.17;;;7.00;;
33327;SDS011;19692;52.998;9.116;2023-11-19T12:00:57;27.87;;;6.93;;
33327;SDS011;19692;52.998;9.116;2023-11-19T12:03:27;26.70;;;7.00;;
33327;SDS011;19692;52.998;9.116;2023-11-19T12:05:54;29.73;;;7.90;;
33327;SDS011;19692;52.998;9.116;2023-11-19T12:08:24;30.27;;;7.17;;
33327;SDS011;19692;52.998;9.116;2023-11-19T12:10:56;29.00;;;7.40;;
33327;SDS011;19692;52.998;9.116;2023-11-19T12:13:23;28.80;;;7.47;;
33327;SDS011;19692;52.998;9.116;2023-11-19T12:20:55;31.37;;;7.90;;
33327;SDS011;19692;52.998;9.116;2023-11-19T12:23:22;35.63;;;7.30;;
33327;SDS011;19692;52.998;9.116;2023-11-19T12:25:49;32.30;;;7.30;;
33327;SDS011;19692;52.998;9.116;2023-11-19T12:28:15;32.97;;;7.97;;
33327;SDS011;19692;52.998;9.116;2023-11-19T12:30:42;34.63;;;8.00;;
33327;SDS011;19692;52.998;9.116;2023-11-19T12:33:12;33.03;;;7.33;;
33327;SDS011;19692;52.998;9.116;2023-11-19T12:35:42;31.17;;;7.43;;
33327;SDS011;19692;52.998;9.116;2023-11-19T12:38:23;32.57;;;8.43;;
33327;SDS011;19692;52.998;9.116;2023-11-19T12:41:06;35.27;;;8.33;;
33327;SDS011;19692;52.998;9.116;2023-11-19T12:43:36;34.63;;;8.20;;
33327;SDS011;19692;52.998;9.116;2023-11-19T12:46:24;34.80;;;8.47;;
33327;SDS011;19692;52.998;9.116;2023-11-19T12:48:49;26.63;;;7.37;;
33327;SDS011;19692;52.998;9.116;2023-11-19T12:51:16;32.67;;;8.00;;
33327;SDS011;19692;52.998;9.116;2023-11-19T12:53:48;35.47;;;8.13;;
33327;SDS011;19692;52.998;9.116;2023-11-19T12:56:20;21.80;;;6.93;;
33327;SDS011;19692;52.998;9.116;2023-11-19T12:58:46;16.27;;;5.60;;
33327;SDS011;19692;52.998;9.116;2023-11-19T13:01:19;24.67;;;6.30;;
33327;SDS011;19692;52.998;9.116;2023-11-19T13:03:45;25.10;;;6.67;;
33327;SDS011;19692;52.998;9.116;2023-11-19T13:06:14;24.27;;;5.47;;
33327;SDS011;19692;52.998;9.116;2023-11-19T13:08:46;27.63;;;6.33;;
33327;SDS011;19692;52.998;9.116;2023-11-19T13:11:15;15.97;;;5.20;;
33327;SDS011;19692;52.998;9.116;2023-11-19T13:16:35;11.97;;;4.00;;
33327;SDS011;19692;52.998;9.116;2023-11-19T13:19:02;7.50;;;3.13;;
33327;SDS011;19692;52.998;9.116;2023-11-19T13:21:28;6.73;;;3.23;;
33327;SDS011;19692;52.998;9.116;2023-11-19T13:23:57;9.07;;;3.27;;
33327;SDS011;19692;52.998;9.116;2023-11-19T13:26:22;7.73;;;2.90;;
33327;SDS011;19692;52.998;9.116;2023-11-19T13:28:48;8.17;;;2.90;;
33327;SDS011;19692;52.998;9.116;2023-11-19T13:31:14;7.87;;;2.90;;
33327;SDS011;19692;52.998;9.116;2023-11-19T13:33:40;8.43;;;2.70;;
33327;SDS011;19692;52.998;9.116;2023-11-19T13:36:06;8.10;;;2.63;;
33327;SDS011;19692;52.998;9.116;2023-11-19T13:38:34;7.70;;;2.80;;
33327;SDS011;19692;52.998;9.116;2023-11-19T13:41:01;6.57;;;2.87;;
33327;SDS011;19692;52.998;9.116;2023-11-19T13:43:28;7.80;;;2.83;;
33327;SDS011;19692;52.998;9.116;2023-11-19T13:45:54;6.37;;;2.57;;
33327;SDS011;19692;52.998;9.116;2023-11-19T13:48:20;6.77;;;2.90;;
33327;SDS011;19692;52.998;9.116;2023-11-19T13:50:46;7.63;;;3.27;;
33327;SDS011;19692;52.998;9.116;2023-11-19T13:53:11;5.20;;;2.60;;
33327;SDS011;19692;52.998;9.116;2023-11-19T13:55:37;6.87;;;2.70;;
33327;SDS011;19692;52.998;9.116;2023-11-19T13:58:03;6.93;;;2.93;;
33327;SDS011;19692;52.998;9.116;2023-11-19T14:00:29;7.50;;;3.10;;
33327;SDS011;19692;52.998;9.116;2023-11-19T14:02:55;6.37;;;3.20;;
33327;SDS011;19692;52.998;9.116;2023-11-19T14:05:21;10.97;;;3.30;;
33327;SDS011;19692;52.998;9.116;2023-11-19T14:07:48;9.47;;;3.27;;
33327;SDS011;19692;52.998;9.116;2023-11-19T14:10:14;7.97;;;3.70;;
33327;SDS011;19692;52.998;9.116;2023-11-19T14:12:40;7.87;;;3.20;;
33327;SDS011;19692;52.998;9.116;2023-11-19T14:15:07;9.17;;;3.93;;
33327;SDS011;19692;52.998;9.116;2023-11-19T14:17:35;12.47;;;3.83;;
33327;SDS011;19692;52.998;9.116;2023-11-19T14:20:01;11.13;;;4.23;;
33327;SDS011;19692;52.998;9.116;2023-11-19T14:22:37;13.37;;;4.43;;
33327;SDS011;19692;52.998;9.116;2023-11-19T14:25:07;12.73;;;4.63;;
33327;SDS011;19692;52.998;9.116;2023-11-19T14:27:43;15.03;;;5.10;;
33327;SDS011;19692;52.998;9.116;2023-11-19T14:30:11;14.03;;;4.83;;
33327;SDS011;19692;52.998;9.116;2023-11-19T14:32:38;18.53;;;6.20;;
33327;SDS011;19692;52.998;9.116;2023-11-19T14:35:10;21.40;;;5.97;;
33327;SDS011;19692;52.998;9.116;2023-11-19T14:37:36;22.20;;;5.90;;
33327;SDS011;19692;52.998;9.116;2023-11-19T14:40:02;17.73;;;6.10;;
33327;SDS011;19692;52.998;9.116;2023-11-19T14:42:33;17.30;;;5.47;;
33327;SDS011;19692;52.998;9.116;2023-11-19T14:45:01;16.97;;;4.37;;
33327;SDS011;19692;52.998;9.116;2023-11-19T14:47:27;13.20;;;4.73;;
33327;SDS011;19692;52.998;9.116;2023-11-19T14:49:54;21.70;;;5.03;;
33327;SDS011;19692;52.998;9.116;2023-11-19T14:52:20;15.53;;;4.60;;
33327;SDS011;19692;52.998;9.116;2023-11-19T14:54:45;16.57;;;4.80;;
33327;SDS011;19692;52.998;9.116;2023-11-19T14:57:11;15.67;;;4.30;;